sensor_id;sensor_type;location;lat;lon;timestamp;pressure;altitude;pressure_sealevel;temperature;humidity
29907;BME280;16776;50.958;10.994;2023-06-04T00:01:34;98907.06;;;10.85;74.13
29907;BME280;16776;50.958;10.994;2023-06-04T00:04:01;98912.34;;;10.81;74.04
29907;BME280;16776;50.958;10.994;2023-06-04T00:06:29;98908.97;;;10.77;74.08
29907;BME280;16776;50.958;10.994;2023-06-04T00:08:55;98898.78;;;10.71;74.57
29907;BME280;16776;50.958;10.994;2023-06-04T00:11:22;98904.09;;;10.65;74.39
29907;BME280;16776;50.958;10.994;2023-06-04T00:13:49;98901.63;;;10.60;74.45
29907;BME280;16776;50.958;10.994;2023-06-04T00:16:15;98897.50;;;10.53;74.83
29907;BME280;16776;50.958;10.994;2023-06-04T00:18:42;98902.75;;;10.47;74.31
29907;BME280;16776;50.958;10.994;2023-06-04T00:21:08;98894.31;;;10.41;74.50
29907;BME280;16776;50.958;10.994;2023-06-04T00:23:36;98900.38;;;10.37;74.52
29907;BME280;16776;50.958;10.994;2023-06-04T00:26:03;98892.00;;;10.29;74.83
29907;BME280;16776;50.958;10.994;2023-06-04T00:28:30;98894.69;;;10.22;74.72
29907;BME280;16776;50.958;10.994;2023-06-04T00:31:05;98892.91;;;10.24;75.28
29907;BME280;16776;50.958;10.994;2023-06-04T00:33:35;98889.81;;;10.10;74.66
29907;BME280;16776;50.958;10.994;2023-06-04T00:36:02;98889.00;;;10.07;75.12
29907;BME280;16776;50.958;10.994;2023-06-04T00:38:29;98895.97;;;10.02;75.45
29907;BME280;16776;50.958;10.994;2023-06-04T00:40:56;98891.75;;;9.99;75.45
29907;BME280;16776;50.958;10.994;2023-06-04T00:43:26;98890.16;;;9.92;75.26
29907;BME280;16776;50.958;10.994;2023-06-04T00:45:55;98888.53;;;9.88;75.61
29907;BME280;16776;50.958;10.994;2023-06-04T00:48:21;98886.91;;;9.84;75.71
29907;BME280;16776;50.958;10.994;2023-06-04T00:50:48;98886.13;;;9.80;75.58
29907;BME280;16776;50.958;10.994;2023-06-04T00:53:14;98884.50;;;9.76;75.66
29907;BME280;16776;50.958;10.994;2023-06-04T00:55:41;98889.72;;;9.72;75.71
29907;BME280;16776;50.958;10.994;2023-06-04T00:58:09;98886.31;;;9.71;76.09
29907;BME280;16776;50.958;10.994;2023-06-04T01:00:37;98886.44;;;9.65;75.75
29907;BME280;16776;50.958;10.994;2023-06-04T01:03:11;98892.38;;;9.67;76.47
29907;BME280;16776;50.958;10.994;2023-06-04T01:05:43;98893.34;;;9.60;76.04
29907;BME280;16776;50.958;10.994;2023-06-04T01:08:14;98890.09;;;9.52;75.63
29907;BME280;16776;50.958;10.994;2023-06-04T01:10:50;98896.88;;;9.56;76.06
29907;BME280;16776;50.958;10.994;2023-06-04T01:13:18;98897.03;;;9.47;75.77
29907;BME280;16776;50.958;10.994;2023-06-04T01:15:45;98895.47;;;9.40;76.09
29907;BME280;16776;50.958;10.994;2023-06-04T01:18:14;98892.13;;;9.32;76.21
29907;BME280;16776;50.958;10.994;2023-06-04T01:20:56;98901.56;;;9.33;75.49
29907;BME280;16776;50.958;10.994;2023-06-04T01:23:33;98899.88;;;9.29;75.74
29907;BME280;16776;50.958;10.994;2023-06-04T01:26:01;98898.44;;;9.14;76.00
29907;BME280;16776;50.958;10.994;2023-06-04T01:28:30;98889.94;;;9.09;76.19
29907;BME280;16776;50.958;10.994;2023-06-04T01:31:01;98900.38;;;9.00;76.18
29907;BME280;16776;50.958;10.994;2023-06-04T01:33:29;98901.28;;;8.96;76.61
29907;BME280;16776;50.958;10.994;2023-06-04T01:35:56;98899.63;;;8.93;76.88
29907;BME280;16776;50.958;10.994;2023-06-04T01:38:23;98910.78;;;8.91;76.88
29907;BME280;16776;50.958;10.994;2023-06-04T01:40:49;98898.81;;;8.90;76.84
29907;BME280;16776;50.958;10.994;2023-06-04T01:43:21;98890.25;;;8.89;76.79
29907;BME280;16776;50.958;10.994;2023-06-04T01:45:49;98899.66;;;8.90;77.02
29907;BME280;16776;50.958;10.994;2023-06-04T01:48:16;98899.72;;;8.87;77.13
29907;BME280;16776;50.958;10.994;2023-06-04T01:50:43;98900.59;;;8.88;77.29
29907;BME280;16776;50.958;10.994;2023-06-04T01:53:09;98901.44;;;8.88;77.19
29907;BME280;16776;50.958;10.994;2023-06-04T01:55:39;98902.31;;;8.87;77.47
29907;BME280;16776;50.958;10.994;2023-06-04T01:58:06;98911.72;;;8.87;77.19
29907;BME280;16776;50.958;10.994;2023-06-04T02:00:34;98904.00;;;8.87;77.31
29907;BME280;16776;50.958;10.994;2023-06-04T02:03:02;98902.31;;;8.87;76.73
29907;BME280;16776;50.958;10.994;2023-06-04T02:05:29;98899.81;;;8.81;76.71
29907;BME280;16776;50.958;10.994;2023-06-04T02:07:56;98896.47;;;8.76;77.42
29907;BME280;16776;50.958;10.994;2023-06-04T02:10:27;98899.94;;;8.72;77.42
29907;BME280;16776;50.958;10.994;2023-06-04T02:12:57;98901.69;;;8.70;76.70
29907;BME280;16776;50.958;10.994;2023-06-04T02:15:24;98903.44;;;8.68;76.85
29907;BME280;16776;50.958;10.994;2023-06-04T02:17:54;98896.53;;;8.70;76.81
29907;BME280;16776;50.958;10.994;2023-06-04T02:20:25;98894.91;;;8.66;76.98
29907;BME280;16776;50.958;10.994;2023-06-04T02:22:53;98908.69;;;8.60;76.82
29907;BME280;16776;50.958;10.994;2023-06-04T02:25:20;98913.03;;;8.55;76.72
29907;BME280;16776;50.958;10.994;2023-06-04T02:27:47;98906.22;;;8.51;76.76
29907;BME280;16776;50.958;10.994;2023-06-04T02:30:14;98914.00;;;8.47;77.25
29907;BME280;16776;50.958;10.994;2023-06-04T02:32:43;98914.06;;;8.42;77.46
29907;BME280;16776;50.958;10.994;2023-06-04T02:35:10;98912.41;;;8.38;77.05
29907;BME280;16776;50.958;10.994;2023-06-04T02:37:38;98911.59;;;8.36;76.81
29907;BME280;16776;50.958;10.994;2023-06-04T02:40:05;98913.38;;;8.31;77.16
29907;BME280;16776;50.958;10.994;2023-06-04T02:42:32;98915.97;;;8.27;77.42
29907;BME280;16776;50.958;10.994;2023-06-04T02:45:01;98915.13;;;8.28;77.78
29907;BME280;16776;50.958;10.994;2023-06-04T02:47:28;98913.50;;;8.20;77.44
29907;BME280;16776;50.958;10.994;2023-06-04T02:49:54;98924.66;;;8.18;78.00
29907;BME280;16776;50.958;10.994;2023-06-04T02:52:21;98919.56;;;8.15;77.32
29907;BME280;16776;50.958;10.994;2023-06-04T02:54:49;98922.13;;;8.13;77.78
29907;BME280;16776;50.958;10.994;2023-06-04T02:57:16;98927.31;;;8.07;77.46
29907;BME280;16776;50.958;10.994;2023-06-04T02:59:44;98929.06;;;8.04;77.79
29907;BME280;16776;50.958;10.994;2023-06-04T03:02:10;98926.59;;;7.95;77.33
29907;BME280;16776;50.958;10.994;2023-06-04T03:04:37;98923.28;;;7.87;77.11
29907;BME280;16776;50.958;10.994;2023-06-04T03:07:05;98924.19;;;7.82;77.30
29907;BME280;16776;50.958;10.994;2023-06-04T03:09:33;98917.53;;;7.65;78.21
29907;BME280;16776;50.958;10.994;2023-06-04T03:12:03;98931.94;;;7.75;78.50
29907;BME280;16776;50.958;10.994;2023-06-04T03:14:31;98937.13;;;7.69;77.46
29907;BME280;16776;50.958;10.994;2023-06-04T03:16:59;98935.47;;;7.65;77.55
29907;BME280;16776;50.958;10.994;2023-06-04T03:19:33;98938.94;;;7.61;78.74
29907;BME280;16776;50.958;10.994;2023-06-04T03:21:59;98943.22;;;7.60;77.72
29907;BME280;16776;50.958;10.994;2023-06-04T03:24:32;98940.66;;;7.59;77.79
29907;BME280;16776;50.958;10.994;2023-06-04T03:27:00;98932.13;;;7.57;77.93
29907;BME280;16776;50.958;10.994;2023-06-04T03:29:28;98941.53;;;7.55;77.18
29907;BME280;16776;50.958;10.994;2023-06-04T03:31:55;98938.19;;;7.50;77.29
29907;BME280;16776;50.958;10.994;2023-06-04T03:34:22;98939.94;;;7.46;77.50
29907;BME280;16776;50.958;10.994;2023-06-04T03:36:50;98940.81;;;7.43;77.84
29907;BME280;16776;50.958;10.994;2023-06-04T03:39:18;98942.53;;;7.41;77.78
29907;BME280;16776;50.958;10.994;2023-06-04T03:41:47;98950.25;;;7.37;78.13
29907;BME280;16776;50.958;10.994;2023-06-04T03:44:13;98953.66;;;7.36;78.06
29907;BME280;16776;50.958;10.994;2023-06-04T03:46:42;98950.25;;;7.37;78.44
29907;BME280;16776;50.958;10.994;2023-06-04T03:49:08;98951.16;;;7.31;78.52
29907;BME280;16776;50.958;10.994;2023-06-04T03:51:36;98949.44;;;7.32;78.05
29907;BME280;16776;50.958;10.994;2023-06-04T03:54:02;98952.88;;;7.32;77.68
29907;BME280;16776;50.958;10.994;2023-06-04T03:56:31;98942.56;;;7.35;79.28
29907;BME280;16776;50.958;10.994;2023-06-04T03:58:57;98951.97;;;7.36;78.85
29907;BME280;16776;50.958;10.994;2023-06-04T04:01:25;98945.13;;;7.40;78.68
29907;BME280;16776;50.958;10.994;2023-06-04T04:03:53;98946.78;;;7.44;79.49
29907;BME280;16776;50.958;10.994;2023-06-04T04:06:20;98952.75;;;7.48;78.23
29907;BME280;16776;50.958;10.994;2023-06-04T04:08:47;98950.13;;;7.51;78.84
29907;BME280;16776;50.958;10.994;2023-06-04T04:11:14;98944.94;;;7.57;79.56
29907;BME280;16776;50.958;10.994;2023-06-04T04:13:41;98933.00;;;7.57;79.08
29907;BME280;16776;50.958;10.994;2023-06-04T04:16:09;98943.09;;;7.71;79.52
29907;BME280;16776;50.958;10.994;2023-06-04T04:18:36;98953.28;;;7.78;78.81
29907;BME280;16776;50.958;10.994;2023-06-04T04:21:04;98956.63;;;7.85;78.83
29907;BME280;16776;50.958;10.994;2023-06-04T04:23:31;98954.06;;;7.85;79.10
29907;BME280;16776;50.958;10.994;2023-06-04T04:25:58;98960.84;;;7.89;78.61
29907;BME280;16776;50.958;10.994;2023-06-04T04:28:24;98958.28;;;7.89;79.77
29907;BME280;16776;50.958;10.994;2023-06-04T04:30:55;98954.88;;;7.90;78.64
29907;BME280;16776;50.958;10.994;2023-06-04T04:33:22;98954.00;;;7.91;80.02
29907;BME280;16776;50.958;10.994;2023-06-04T04:35:49;98938.63;;;7.88;79.75
29907;BME280;16776;50.958;10.994;2023-06-04T04:38:19;98941.91;;;8.04;80.14
29907;BME280;16776;50.958;10.994;2023-06-04T04:40:50;98941.84;;;8.08;80.14
29907;BME280;16776;50.958;10.994;2023-06-04T04:43:17;98949.44;;;8.19;80.52
29907;BME280;16776;50.958;10.994;2023-06-04T04:45:44;98951.88;;;8.31;80.12
29907;BME280;16776;50.958;10.994;2023-06-04T04:48:10;98947.44;;;8.41;80.31
29907;BME280;16776;50.958;10.994;2023-06-04T04:50:37;98949.06;;;8.49;80.89
29907;BME280;16776;50.958;10.994;2023-06-04T04:53:06;98947.22;;;8.57;80.41
29907;BME280;16776;50.958;10.994;2023-06-04T04:55:34;98951.38;;;8.69;81.36
29907;BME280;16776;50.958;10.994;2023-06-04T04:58:00;98944.34;;;8.79;81.37
29907;BME280;16776;50.958;10.994;2023-06-04T05:00:28;98954.44;;;8.92;81.53
29907;BME280;16776;50.958;10.994;2023-06-04T05:02:55;98949.06;;;9.08;81.41
29907;BME280;16776;50.958;10.994;2023-06-04T05:05:21;98954.81;;;9.22;81.19
29907;BME280;16776;50.958;10.994;2023-06-04T05:07:48;98955.47;;;9.36;81.86
29907;BME280;16776;50.958;10.994;2023-06-04T05:10:14;98958.69;;;9.50;81.53
29907;BME280;16776;50.958;10.994;2023-06-04T05:12:51;98965.13;;;9.72;81.32
29907;BME280;16776;50.958;10.994;2023-06-04T05:15:19;98952.22;;;9.77;81.20
29907;BME280;16776;50.958;10.994;2023-06-04T05:17:46;98962.28;;;9.89;81.13
29907;BME280;16776;50.958;10.994;2023-06-04T05:20:15;98951.66;;;10.04;80.71
29907;BME280;16776;50.958;10.994;2023-06-04T05:22:42;98960.16;;;10.09;81.05
29907;BME280;16776;50.958;10.994;2023-06-04T05:25:10;98951.44;;;10.16;81.45
29907;BME280;16776;50.958;10.994;2023-06-04T05:27:37;98960.66;;;10.28;81.01
29907;BME280;16776;50.958;10.994;2023-06-04T05:30:07;98968.09;;;10.42;80.90
29907;BME280;16776;50.958;10.994;2023-06-04T05:32:36;98968.88;;;10.45;80.85
29907;BME280;16776;50.958;10.994;2023-06-04T05:35:06;98969.59;;;10.50;81.27
29907;BME280;16776;50.958;10.994;2023-06-04T05:37:34;98971.28;;;10.54;81.06
29907;BME280;16776;50.958;10.994;2023-06-04T05:40:06;98966.88;;;10.59;80.80
29907;BME280;16776;50.958;10.994;2023-06-04T05:42:37;98966.81;;;10.62;81.20
29907;BME280;16776;50.958;10.994;2023-06-04T05:45:06;98970.03;;;10.74;81.52
29907;BME280;16776;50.958;10.994;2023-06-04T05:47:35;98974.16;;;10.81;81.88
29907;BME280;16776;50.958;10.994;2023-06-04T05:50:02;98971.22;;;10.96;81.76
29907;BME280;16776;50.958;10.994;2023-06-04T05:52:39;98979.34;;;11.16;82.94
29907;BME280;16776;50.958;10.994;2023-06-04T05:55:07;98976.47;;;11.28;82.35
29907;BME280;16776;50.958;10.994;2023-06-04T05:57:34;98984.59;;;11.47;82.03
29907;BME280;16776;50.958;10.994;2023-06-04T06:00:00;98974.81;;;11.61;81.60
29907;BME280;16776;50.958;10.994;2023-06-04T06:02:29;98971.88;;;11.76;82.18
29907;BME280;16776;50.958;10.994;2023-06-04T06:04:57;98969.00;;;11.87;82.03
29907;BME280;16776;50.958;10.994;2023-06-04T06:07:24;98972.06;;;12.01;81.95
29907;BME280;16776;50.958;10.994;2023-06-04T06:09:50;98975.13;;;12.15;81.98
29907;BME280;16776;50.958;10.994;2023-06-04T06:12:17;98971.28;;;12.29;81.96
29907;BME280;16776;50.958;10.994;2023-06-04T06:14:44;98969.16;;;12.43;82.28
29907;BME280;16776;50.958;10.994;2023-06-04T06:17:14;98976.44;;;12.59;82.81
29907;BME280;16776;50.958;10.994;2023-06-04T06:19:46;98975.81;;;12.81;83.33
29907;BME280;16776;50.958;10.994;2023-06-04T06:22:12;98976.00;;;13.02;83.49
29907;BME280;16776;50.958;10.994;2023-06-04T06:24:39;98981.25;;;13.27;83.13
29907;BME280;16776;50.958;10.994;2023-06-04T06:27:09;98982.94;;;13.55;82.56
29907;BME280;16776;50.958;10.994;2023-06-04T06:29:39;98971.16;;;13.72;82.64
29907;BME280;16776;50.958;10.994;2023-06-04T06:32:06;98980.34;;;14.06;82.54
29907;BME280;16776;50.958;10.994;2023-06-04T06:34:32;98982.09;;;14.29;81.71
29907;BME280;16776;50.958;10.994;2023-06-04T06:37:02;98994.28;;;14.51;81.63
29907;BME280;16776;50.958;10.994;2023-06-04T06:39:29;98995.50;;;14.65;81.51
29907;BME280;16776;50.958;10.994;2023-06-04T06:41:56;98993.22;;;14.79;81.04
29907;BME280;16776;50.958;10.994;2023-06-04T06:44:22;98999.75;;;14.89;81.10
29907;BME280;16776;50.958;10.994;2023-06-04T06:46:51;99002.72;;;15.01;80.52
29907;BME280;16776;50.958;10.994;2023-06-04T06:49:18;99000.56;;;15.13;80.36
29907;BME280;16776;50.958;10.994;2023-06-04T06:51:47;99002.84;;;15.20;80.63
29907;BME280;16776;50.958;10.994;2023-06-04T06:54:15;99011.03;;;15.33;80.42
29907;BME280;16776;50.958;10.994;2023-06-04T06:56:47;99012.47;;;15.40;79.77
29907;BME280;16776;50.958;10.994;2023-06-04T06:59:14;99011.06;;;15.53;80.36
29907;BME280;16776;50.958;10.994;2023-06-04T07:01:41;99017.31;;;15.69;79.81
29907;BME280;16776;50.958;10.994;2023-06-04T07:04:08;99017.53;;;15.85;79.22
29907;BME280;16776;50.958;10.994;2023-06-04T07:06:34;99014.41;;;15.97;79.76
29907;BME280;16776;50.958;10.994;2023-06-04T07:09:02;99008.63;;;16.11;79.62
29907;BME280;16776;50.958;10.994;2023-06-04T07:11:32;99003.56;;;16.28;79.47
29907;BME280;16776;50.958;10.994;2023-06-04T07:13:59;99001.19;;;16.42;79.35
29907;BME280;16776;50.958;10.994;2023-06-04T07:16:27;99006.41;;;16.61;79.19
29907;BME280;16776;50.958;10.994;2023-06-04T07:18:54;98994.47;;;16.76;79.09
29907;BME280;16776;50.958;10.994;2023-06-04T07:21:21;99004.69;;;16.99;78.59
29907;BME280;16776;50.958;10.994;2023-06-04T07:23:49;99013.81;;;17.08;78.12
29907;BME280;16776;50.958;10.994;2023-06-04T07:26:16;99005.84;;;17.11;78.55
29907;BME280;16776;50.958;10.994;2023-06-04T07:28:44;99008.03;;;17.20;78.99
29907;BME280;16776;50.958;10.994;2023-06-04T07:31:10;99005.81;;;17.29;78.91
29907;BME280;16776;50.958;10.994;2023-06-04T07:33:40;99003.34;;;17.45;79.53
29907;BME280;16776;50.958;10.994;2023-06-04T07:36:11;99003.09;;;17.67;79.32
29907;BME280;16776;50.958;10.994;2023-06-04T07:38:41;99003.81;;;17.88;79.82
29907;BME280;16776;50.958;10.994;2023-06-04T07:41:08;98998.28;;;18.11;79.63
29907;BME280;16776;50.958;10.994;2023-06-04T07:43:36;99001.38;;;18.35;78.94
29907;BME280;16776;50.958;10.994;2023-06-04T07:46:07;98987.31;;;18.54;79.35
29907;BME280;16776;50.958;10.994;2023-06-04T07:48:34;99006.88;;;18.79;78.26
29907;BME280;16776;50.958;10.994;2023-06-04T07:51:04;98998.03;;;18.97;79.00
29907;BME280;16776;50.958;10.994;2023-06-04T07:53:30;99002.16;;;19.17;78.61
29907;BME280;16776;50.958;10.994;2023-06-04T07:55:59;99005.25;;;19.39;78.44
29907;BME280;16776;50.958;10.994;2023-06-04T07:58:25;99003.47;;;19.55;77.92
29907;BME280;16776;50.958;10.994;2023-06-04T08:00:53;99006.69;;;19.74;78.66
29907;BME280;16776;50.958;10.994;2023-06-04T08:03:21;99002.09;;;19.94;78.29
29907;BME280;16776;50.958;10.994;2023-06-04T08:05:51;99003.81;;;20.09;77.77
29907;BME280;16776;50.958;10.994;2023-06-04T08:08:18;98988.13;;;20.23;78.13
29907;BME280;16776;50.958;10.994;2023-06-04T08:10:45;99007.19;;;20.39;77.29
29907;BME280;16776;50.958;10.994;2023-06-04T08:13:11;98996.72;;;20.53;77.39
29907;BME280;16776;50.958;10.994;2023-06-04T08:15:38;98994.84;;;20.70;76.92
29907;BME280;16776;50.958;10.994;2023-06-04T08:18:04;98995.13;;;20.79;77.24
29907;BME280;16776;50.958;10.994;2023-06-04T08:20:32;99002.22;;;20.91;76.80
29907;BME280;16776;50.958;10.994;2023-06-04T08:22:59;98997.31;;;21.00;76.23
29907;BME280;16776;50.958;10.994;2023-06-04T08:25:25;99000.19;;;21.09;77.12
29907;BME280;16776;50.958;10.994;2023-06-04T08:27:54;99002.88;;;21.22;76.43
29907;BME280;16776;50.958;10.994;2023-06-04T08:30:21;98970.47;;;21.10;75.82
29907;BME280;16776;50.958;10.994;2023-06-04T08:32:47;99004.31;;;21.40;76.26
29907;BME280;16776;50.958;10.994;2023-06-04T08:35:14;99003.75;;;21.49;76.63
29907;BME280;16776;50.958;10.994;2023-06-04T08:37:42;99008.16;;;21.61;76.72
29907;BME280;16776;50.958;10.994;2023-06-04T08:40:09;99002.53;;;21.67;76.29
29907;BME280;16776;50.958;10.994;2023-06-04T08:42:40;99007.88;;;21.79;76.33
29907;BME280;16776;50.958;10.994;2023-06-04T08:45:10;99009.56;;;21.80;75.40
29907;BME280;16776;50.958;10.994;2023-06-04T08:47:37;99007.03;;;21.78;75.27
29907;BME280;16776;50.958;10.994;2023-06-04T08:50:10;99004.94;;;21.83;74.44
29907;BME280;16776;50.958;10.994;2023-06-04T08:52:37;99009.56;;;21.80;73.73
29907;BME280;16776;50.958;10.994;2023-06-04T08:55:07;99004.75;;;21.86;74.26
29907;BME280;16776;50.958;10.994;2023-06-04T08:57:41;99005.59;;;21.87;74.33
29907;BME280;16776;50.958;10.994;2023-06-04T09:00:09;99000.53;;;21.84;73.97
29907;BME280;16776;50.958;10.994;2023-06-04T09:02:37;98996.25;;;21.83;73.74
29907;BME280;16776;50.958;10.994;2023-06-04T09:05:06;99008.78;;;21.92;74.02
29907;BME280;16776;50.958;10.994;2023-06-04T09:07:35;99004.91;;;21.97;73.47
29907;BME280;16776;50.958;10.994;2023-06-04T09:10:02;99004.06;;;21.97;73.02
29907;BME280;16776;50.958;10.994;2023-06-04T09:12:32;98998.72;;;21.98;72.03
29907;BME280;16776;50.958;10.994;2023-06-04T09:15:02;98992.47;;;21.87;71.46
29907;BME280;16776;50.958;10.994;2023-06-04T09:17:29;98997.50;;;21.77;71.59
29907;BME280;16776;50.958;10.994;2023-06-04T09:19:56;98990.97;;;21.70;71.73
29907;BME280;16776;50.958;10.994;2023-06-04T09:22:31;98990.69;;;21.74;70.89
29907;BME280;16776;50.958;10.994;2023-06-04T09:24:58;98995.25;;;21.58;71.36
29907;BME280;16776;50.958;10.994;2023-06-04T09:27:25;98988.31;;;21.57;69.50
29907;BME280;16776;50.958;10.994;2023-06-04T09:29:55;99002.41;;;21.56;70.24
29907;BME280;16776;50.958;10.994;2023-06-04T09:32:22;99000.47;;;21.46;70.05
29907;BME280;16776;50.958;10.994;2023-06-04T09:34:49;98999.09;;;21.40;69.42
29907;BME280;16776;50.958;10.994;2023-06-04T09:37:16;99003.25;;;21.30;68.79
29907;BME280;16776;50.958;10.994;2023-06-04T09:39:43;98999.50;;;21.20;69.27
29907;BME280;16776;50.958;10.994;2023-06-04T09:42:10;99005.22;;;21.12;70.45
29907;BME280;16776;50.958;10.994;2023-06-04T09:44:43;98999.91;;;21.14;70.78
29907;BME280;16776;50.958;10.994;2023-06-04T09:47:11;99010.63;;;21.23;70.67
29907;BME280;16776;50.958;10.994;2023-06-04T09:49:41;99005.34;;;21.38;70.33
29907;BME280;16776;50.958;10.994;2023-06-04T09:52:08;99005.09;;;21.42;70.66
29907;BME280;16776;50.958;10.994;2023-06-04T09:54:36;99007.84;;;21.53;70.77
29907;BME280;16776;50.958;10.994;2023-06-04T09:57:04;99009.84;;;21.62;70.96
29907;BME280;16776;50.958;10.994;2023-06-04T09:59:32;99006.41;;;21.74;70.56
29907;BME280;16776;50.958;10.994;2023-06-04T10:02:06;99006.44;;;21.87;69.47
29907;BME280;16776;50.958;10.994;2023-06-04T10:04:36;98994.91;;;21.90;69.74
29907;BME280;16776;50.958;10.994;2023-06-04T10:07:03;99004.38;;;21.92;70.01
29907;BME280;16776;50.958;10.994;2023-06-04T10:09:35;99000.50;;;21.98;70.03
29907;BME280;16776;50.958;10.994;2023-06-04T10:12:11;98999.56;;;21.99;69.81
29907;BME280;16776;50.958;10.994;2023-06-04T10:14:41;98995.56;;;22.06;70.35
29907;BME280;16776;50.958;10.994;2023-06-04T10:17:15;98984.25;;;22.05;69.88
29907;BME280;16776;50.958;10.994;2023-06-04T10:19:45;98998.19;;;22.19;70.29
29907;BME280;16776;50.958;10.994;2023-06-04T10:22:12;98993.91;;;22.18;69.01
29907;BME280;16776;50.958;10.994;2023-06-04T10:24:39;98999.75;;;22.21;69.61
29907;BME280;16776;50.958;10.994;2023-06-04T10:27:06;98992.44;;;22.26;69.85
29907;BME280;16776;50.958;10.994;2023-06-04T10:29:36;98995.56;;;22.31;69.62
29907;BME280;16776;50.958;10.994;2023-06-04T10:32:04;98994.91;;;22.40;69.00
29907;BME280;16776;50.958;10.994;2023-06-04T10:34:35;98984.84;;;22.47;69.35
29907;BME280;16776;50.958;10.994;2023-06-04T10:37:04;98993.53;;;22.47;69.00
29907;BME280;16776;50.958;10.994;2023-06-04T10:39:32;98990.91;;;22.47;69.04
29907;BME280;16776;50.958;10.994;2023-06-04T10:42:00;98982.53;;;22.42;68.88
29907;BME280;16776;50.958;10.994;2023-06-04T10:44:27;98993.16;;;22.53;68.37
29907;BME280;16776;50.958;10.994;2023-06-04T10:46:54;98995.56;;;22.57;68.53
29907;BME280;16776;50.958;10.994;2023-06-04T10:49:27;98988.00;;;22.65;69.61
29907;BME280;16776;50.958;10.994;2023-06-04T10:52:10;98993.13;;;22.66;68.51
29907;BME280;16776;50.958;10.994;2023-06-04T10:54:37;98982.31;;;22.71;68.66
29907;BME280;16776;50.958;10.994;2023-06-04T10:57:10;98983.13;;;22.84;69.07
29907;BME280;16776;50.958;10.994;2023-06-04T10:59:37;98984.66;;;22.86;68.85
29907;BME280;16776;50.958;10.994;2023-06-04T11:02:07;98989.69;;;23.02;68.73
29907;BME280;16776;50.958;10.994;2023-06-04T11:04:35;98986.22;;;23.02;68.59
29907;BME280;16776;50.958;10.994;2023-06-04T11:07:07;98976.31;;;23.05;68.87
29907;BME280;16776;50.958;10.994;2023-06-04T11:09:36;98984.41;;;23.15;68.66
29907;BME280;16776;50.958;10.994;2023-06-04T11:12:05;98972.38;;;23.11;68.31
29907;BME280;16776;50.958;10.994;2023-06-04T11:14:35;98993.53;;;23.22;68.21
29907;BME280;16776;50.958;10.994;2023-06-04T11:17:12;98975.75;;;23.37;68.71
29907;BME280;16776;50.958;10.994;2023-06-04T11:19:39;98988.75;;;23.27;67.05
29907;BME280;16776;50.958;10.994;2023-06-04T11:22:10;98972.16;;;23.26;66.89
29907;BME280;16776;50.958;10.994;2023-06-04T11:24:49;98975.00;;;23.23;67.99
29907;BME280;16776;50.958;10.994;2023-06-04T11:27:24;98975.25;;;23.08;66.48
29907;BME280;16776;50.958;10.994;2023-06-04T11:29:54;98980.13;;;23.01;66.22
29907;BME280;16776;50.958;10.994;2023-06-04T11:32:25;98976.03;;;22.97;66.46
29907;BME280;16776;50.958;10.994;2023-06-04T11:35:02;98974.97;;;23.00;65.49
29907;BME280;16776;50.958;10.994;2023-06-04T11:37:28;98965.78;;;22.81;65.98
29907;BME280;16776;50.958;10.994;2023-06-04T11:40:01;98965.19;;;22.78;66.49
29907;BME280;16776;50.958;10.994;2023-06-04T11:42:33;98963.63;;;22.63;66.45
29907;BME280;16776;50.958;10.994;2023-06-04T11:45:01;98970.78;;;22.61;66.75
29907;BME280;16776;50.958;10.994;2023-06-04T11:47:29;98970.56;;;22.64;66.70
29907;BME280;16776;50.958;10.994;2023-06-04T11:49:56;98972.25;;;22.65;66.70
29907;BME280;16776;50.958;10.994;2023-06-04T11:52:23;98956.69;;;22.62;66.08
29907;BME280;16776;50.958;10.994;2023-06-04T11:54:50;98975.38;;;22.70;64.47
29907;BME280;16776;50.958;10.994;2023-06-04T11:57:21;98973.19;;;22.64;65.71
29907;BME280;16776;50.958;10.994;2023-06-04T11:59:48;98980.88;;;22.54;65.91
29907;BME280;16776;50.958;10.994;2023-06-04T12:02:15;98970.75;;;22.48;65.59
29907;BME280;16776;50.958;10.994;2023-06-04T12:04:42;98976.34;;;22.43;65.67
29907;BME280;16776;50.958;10.994;2023-06-04T12:07:08;98969.41;;;22.42;65.72
29907;BME280;16776;50.958;10.994;2023-06-04T12:09:35;98966.78;;;22.42;65.53
29907;BME280;16776;50.958;10.994;2023-06-04T12:12:04;98969.31;;;22.44;65.98
29907;BME280;16776;50.958;10.994;2023-06-04T12:14:33;98955.13;;;22.46;65.72
29907;BME280;16776;50.958;10.994;2023-06-04T12:17:01;98953.47;;;22.45;65.01
29907;BME280;16776;50.958;10.994;2023-06-04T12:19:28;98950.84;;;22.45;64.74
29907;BME280;16776;50.958;10.994;2023-06-04T12:22:01;98945.34;;;22.48;65.48
29907;BME280;16776;50.958;10.994;2023-06-04T12:24:29;98961.53;;;22.42;65.57
29907;BME280;16776;50.958;10.994;2023-06-04T12:27:03;98959.03;;;22.53;65.72
29907;BME280;16776;50.958;10.994;2023-06-04T12:29:30;98962.78;;;22.49;65.17
29907;BME280;16776;50.958;10.994;2023-06-04T12:32:05;98945.69;;;22.57;66.36
29907;BME280;16776;50.958;10.994;2023-06-04T12:34:34;98953.06;;;22.51;65.97
29907;BME280;16776;50.958;10.994;2023-06-04T12:37:01;98953.56;;;22.57;66.30
29907;BME280;16776;50.958;10.994;2023-06-04T12:39:28;98950.41;;;22.64;66.17
29907;BME280;16776;50.958;10.994;2023-06-04T12:41:55;98954.16;;;22.73;65.99
29907;BME280;16776;50.958;10.994;2023-06-04T12:44:22;98950.88;;;22.82;66.20
29907;BME280;16776;50.958;10.994;2023-06-04T12:46:49;98953.56;;;22.93;66.24
29907;BME280;16776;50.958;10.994;2023-06-04T12:49:17;98964.94;;;23.05;66.37
29907;BME280;16776;50.958;10.994;2023-06-04T12:51:44;98954.97;;;23.10;66.35
29907;BME280;16776;50.958;10.994;2023-06-04T12:54:10;98958.72;;;23.18;66.33
29907;BME280;16776;50.958;10.994;2023-06-04T12:56:37;98952.06;;;23.25;66.37
29907;BME280;16776;50.958;10.994;2023-06-04T12:59:07;98949.47;;;23.37;66.44